sensor_id;sensor_type;location;lat;lon;timestamp;temperature;humidity
33011;DHT22;19370;48.562;9.196;2023-11-21T00:00:35;8.40;99.90
33011;DHT22;19370;48.562;9.196;2023-11-21T00:03:00;8.40;99.90
33011;DHT22;19370;48.562;9.196;2023-11-21T00:05:27;8.40;99.90
33011;DHT22;19370;48.562;9.196;2023-11-21T00:07:52;8.40;99.90
33011;DHT22;19370;48.562;9.196;2023-11-21T00:10:18;8.40;99.90
33011;DHT22;19370;48.562;9.196;2023-11-21T00:12:44;8.40;99.90
33011;DHT22;19370;48.562;9.196;2023-11-21T00:15:16;8.40;99.90
33011;DHT22;19370;48.562;9.196;2023-11-21T00:17:41;8.40;99.90
33011;DHT22;19370;48.562;9.196;2023-11-21T00:20:08;8.40;99.90
33011;DHT22;19370;48.562;9.196;2023-11-21T00:22:35;8.40;99.90
33011;DHT22;19370;48.562;9.196;2023-11-21T00:25:02;8.40;99.90
33011;DHT22;19370;48.562;9.196;2023-11-21T00:27:29;8.40;99.90
33011;DHT22;19370;48.562;9.196;2023-11-21T00:29:55;8.40;99.90
33011;DHT22;19370;48.562;9.196;2023-11-21T00:32:21;8.50;99.90
33011;DHT22;19370;48.562;9.196;2023-11-21T00:34:46;8.50;99.90
33011;DHT22;19370;48.562;9.196;2023-11-21T00:37:12;8.50;99.90
33011;DHT22;19370;48.562;9.196;2023-11-21T00:39:39;8.50;99.90
33011;DHT22;19370;48.562;9.196;2023-11-21T00:42:05;8.50;99.90
33011;DHT22;19370;48.562;9.196;2023-11-21T00:44:31;8.50;99.90
33011;DHT22;19370;48.562;9.196;2023-11-21T00:46:56;8.50;99.90
33011;DHT22;19370;48.562;9.196;2023-11-21T00:49:24;8.50;99.90
33011;DHT22;19370;48.562;9.196;2023-11-21T00:51:49;8.40;99.90
33011;DHT22;19370;48.562;9.196;2023-11-21T00:54:15;8.40;99.90
33011;DHT22;19370;48.562;9.196;2023-11-21T00:56:43;8.40;99.90
33011;DHT22;19370;48.562;9.196;2023-11-21T00:59:09;8.40;99.90
33011;DHT22;19370;48.562;9.196;2023-11-21T01:01:36;8.40;99.90
33011;DHT22;19370;48.562;9.196;2023-11-21T01:04:03;8.50;99.90
33011;DHT22;19370;48.562;9.196;2023-11-21T01:06:28;8.50;99.90
33011;DHT22;19370;48.562;9.196;2023-11-21T01:08:56;8.50;99.90
33011;DHT22;19370;48.562;9.196;2023-11-21T01:11:21;8.50;99.90
33011;DHT22;19370;48.562;9.196;2023-11-21T01:13:47;8.50;99.90
33011;DHT22;19370;48.562;9.196;2023-11-21T01:16:13;8.60;99.90
33011;DHT22;19370;48.562;9.196;2023-11-21T01:18:38;8.50;99.90
33011;DHT22;19370;48.562;9.196;2023-11-21T01:21:04;8.50;99.90
33011;DHT22;19370;48.562;9.196;2023-11-21T01:23:37;8.50;99.90
33011;DHT22;19370;48.562;9.196;2023-11-21T01:26:02;8.50;99.90
33011;DHT22;19370;48.562;9.196;2023-11-21T01:28:29;8.50;99.90
33011;DHT22;19370;48.562;9.196;2023-11-21T01:30:55;8.50;99.90
33011;DHT22;19370;48.562;9.196;2023-11-21T01:33:23;8.50;99.90
33011;DHT22;19370;48.562;9.196;2023-11-21T01:35:50;8.50;99.90
33011;DHT22;19370;48.562;9.196;2023-11-21T01:38:18;8.50;99.90
33011;DHT22;19370;48.562;9.196;2023-11-21T01:40:44;8.50;99.90
33011;DHT22;19370;48.562;9.196;2023-11-21T01:43:11;8.50;99.90
33011;DHT22;19370;48.562;9.196;2023-11-21T01:45:37;8.40;99.90
33011;DHT22;19370;48.562;9.196;2023-11-21T01:48:04;8.40;99.90
33011;DHT22;19370;48.562;9.196;2023-11-21T01:50:32;8.30;99.90
33011;DHT22;19370;48.562;9.196;2023-11-21T01:53:02;8.20;99.90
33011;DHT22;19370;48.562;9.196;2023-11-21T01:55:28;8.20;99.90
33011;DHT22;19370;48.562;9.196;2023-11-21T01:57:55;8.20;99.90
33011;DHT22;19370;48.562;9.196;2023-11-21T02:00:22;8.20;99.90
33011;DHT22;19370;48.562;9.196;2023-11-21T02:02:51;8.20;99.90
33011;DHT22;19370;48.562;9.196;2023-11-21T02:05:18;8.20;99.90
33011;DHT22;19370;48.562;9.196;2023-11-21T02:07:45;8.30;99.90
33011;DHT22;19370;48.562;9.196;2023-11-21T02:10:13;8.20;99.90
33011;DHT22;19370;48.562;9.196;2023-11-21T02:12:42;8.20;99.90
33011;DHT22;19370;48.562;9.196;2023-11-21T02:15:11;8.20;99.90
33011;DHT22;19370;48.562;9.196;2023-11-21T02:17:44;8.20;99.90
33011;DHT22;19370;48.562;9.196;2023-11-21T02:20:11;8.20;99.90
33011;DHT22;19370;48.562;9.196;2023-11-21T02:22:41;8.20;99.90
33011;DHT22;19370;48.562;9.196;2023-11-21T02:25:08;8.20;99.90
33011;DHT22;19370;48.562;9.196;2023-11-21T02:27:34;8.20;99.90
33011;DHT22;19370;48.562;9.196;2023-11-21T02:30:00;8.10;99.90
33011;DHT22;19370;48.562;9.196;2023-11-21T02:32:26;8.10;99.90
33011;DHT22;19370;48.562;9.196;2023-11-21T02:34:52;8.10;99.90
33011;DHT22;19370;48.562;9.196;2023-11-21T02:37:21;8.10;99.90
33011;DHT22;19370;48.562;9.196;2023-11-21T02:39:49;8.10;99.90
33011;DHT22;19370;48.562;9.196;2023-11-21T05:48:34;8.20;99.90
33011;DHT22;19370;48.562;9.196;2023-11-21T05:51:05;8.10;99.90
33011;DHT22;19370;48.562;9.196;2023-11-21T05:53:31;8.10;99.90
33011;DHT22;19370;48.562;9.196;2023-11-21T05:55:57;8.00;99.90
33011;DHT22;19370;48.562;9.196;2023-11-21T05:58:23;8.10;99.90
33011;DHT22;19370;48.562;9.196;2023-11-21T06:00:49;8.10;99.90
33011;DHT22;19370;48.562;9.196;2023-11-21T06:03:14;8.10;99.90
33011;DHT22;19370;48.562;9.196;2023-11-21T06:05:40;8.10;99.90
33011;DHT22;19370;48.562;9.196;2023-11-21T06:08:05;8.20;99.90
33011;DHT22;19370;48.562;9.196;2023-11-21T06:10:32;8.20;99.90
33011;DHT22;19370;48.562;9.196;2023-11-21T06:12:58;8.30;99.90
33011;DHT22;19370;48.562;9.196;2023-11-21T06:15:24;8.30;99.90
33011;DHT22;19370;48.562;9.196;2023-11-21T06:17:50;8.30;99.90
33011;DHT22;19370;48.562;9.196;2023-11-21T06:20:18;8.30;99.90
33011;DHT22;19370;48.562;9.196;2023-11-21T06:22:45;8.20;99.90
33011;DHT22;19370;48.562;9.196;2023-11-21T06:25:12;8.20;99.90
33011;DHT22;19370;48.562;9.196;2023-11-21T06:27:43;8.20;99.90
33011;DHT22;19370;48.562;9.196;2023-11-21T06:30:10;8.10;99.90
33011;DHT22;19370;48.562;9.196;2023-11-21T06:32:37;8.20;99.90
33011;DHT22;19370;48.562;9.196;2023-11-21T06:35:04;8.10;99.90
33011;DHT22;19370;48.562;9.196;2023-11-21T06:37:30;8.20;99.90
33011;DHT22;19370;48.562;9.196;2023-11-21T06:39:56;8.20;99.90
33011;DHT22;19370;48.562;9.196;2023-11-21T06:42:24;8.20;99.90
33011;DHT22;19370;48.562;9.196;2023-11-21T06:44:50;8.20;99.90
33011;DHT22;19370;48.562;9.196;2023-11-21T06:47:19;8.30;99.90
33011;DHT22;19370;48.562;9.196;2023-11-21T06:49:51;8.20;99.90
33011;DHT22;19370;48.562;9.196;2023-11-21T06:52:17;8.20;99.90
33011;DHT22;19370;48.562;9.196;2023-11-21T06:54:43;8.20;99.90
33011;DHT22;19370;48.562;9.196;2023-11-21T06:57:09;8.10;99.90
33011;DHT22;19370;48.562;9.196;2023-11-21T06:59:34;8.20;99.90
33011;DHT22;19370;48.562;9.196;2023-11-21T07:02:00;8.20;99.90
33011;DHT22;19370;48.562;9.196;2023-11-21T07:04:26;8.20;99.90
33011;DHT22;19370;48.562;9.196;2023-11-21T07:06:53;8.30;99.90
33011;DHT22;19370;48.562;9.196;2023-11-21T07:09:18;8.20;99.90
33011;DHT22;19370;48.562;9.196;2023-11-21T07:11:47;8.30;99.90
33011;DHT22;19370;48.562;9.196;2023-11-21T07:14:14;8.30;99.90
33011;DHT22;19370;48.562;9.196;2023-11-21T07:16:39;8.30;99.90
33011;DHT22;19370;48.562;9.196;2023-11-21T07:19:05;8.40;99.90
33011;DHT22;19370;48.562;9.196;2023-11-21T07:21:34;8.40;99.90
33011;DHT22;19370;48.562;9.196;2023-11-21T07:24:00;8.20;99.90
33011;DHT22;19370;48.562;9.196;2023-11-21T07:26:29;8.30;99.90
33011;DHT22;19370;48.562;9.196;2023-11-21T07:28:55;8.40;99.90
33011;DHT22;19370;48.562;9.196;2023-11-21T07:31:21;8.40;99.90
33011;DHT22;19370;48.562;9.196;2023-11-21T07:33:47;8.50;99.90
33011;DHT22;19370;48.562;9.196;2023-11-21T07:36:14;8.40;99.90
33011;DHT22;19370;48.562;9.196;2023-11-21T07:38:41;8.50;99.90
33011;DHT22;19370;48.562;9.196;2023-11-21T07:41:07;8.50;99.90
33011;DHT22;19370;48.562;9.196;2023-11-21T07:43:35;8.50;99.90
33011;DHT22;19370;48.562;9.196;2023-11-21T07:46:07;8.50;99.90
33011;DHT22;19370;48.562;9.196;2023-11-21T07:48:36;8.60;99.90
33011;DHT22;19370;48.562;9.196;2023-11-21T07:51:02;8.60;99.90
33011;DHT22;19370;48.562;9.196;2023-11-21T07:53:32;8.50;99.90
33011;DHT22;19370;48.562;9.196;2023-11-21T07:56:02;8.60;99.90
33011;DHT22;19370;48.562;9.196;2023-11-21T07:58:28;8.60;99.90
33011;DHT22;19370;48.562;9.196;2023-11-21T08:00:54;8.60;99.90
33011;DHT22;19370;48.562;9.196;2023-11-21T08:03:19;8.60;99.90
33011;DHT22;19370;48.562;9.196;2023-11-21T08:05:46;8.50;99.90
33011;DHT22;19370;48.562;9.196;2023-11-21T08:08:12;8.60;99.90
33011;DHT22;19370;48.562;9.196;2023-11-21T08:10:37;8.60;99.90
33011;DHT22;19370;48.562;9.196;2023-11-21T08:13:04;8.60;99.90
33011;DHT22;19370;48.562;9.196;2023-11-21T08:15:30;8.70;99.90
33011;DHT22;19370;48.562;9.196;2023-11-21T08:17:58;8.60;99.90
33011;DHT22;19370;48.562;9.196;2023-11-21T08:20:24;8.50;99.90
33011;DHT22;19370;48.562;9.196;2023-11-21T08:22:50;8.60;99.90
33011;DHT22;19370;48.562;9.196;2023-11-21T08:25:17;8.60;99.90
33011;DHT22;19370;48.562;9.196;2023-11-21T08:27:45;8.60;99.90
33011;DHT22;19370;48.562;9.196;2023-11-21T08:30:11;8.70;99.90
33011;DHT22;19370;48.562;9.196;2023-11-21T08:32:39;8.80;99.90
33011;DHT22;19370;48.562;9.196;2023-11-21T08:35:06;8.80;99.90
33011;DHT22;19370;48.562;9.196;2023-11-21T08:37:32;8.80;99.90
33011;DHT22;19370;48.562;9.196;2023-11-21T08:40:01;8.70;99.90
33011;DHT22;19370;48.562;9.196;2023-11-21T08:42:27;8.70;99.90
33011;DHT22;19370;48.562;9.196;2023-11-21T08:44:55;8.80;99.90
33011;DHT22;19370;48.562;9.196;2023-11-21T08:47:23;8.70;99.90
33011;DHT22;19370;48.562;9.196;2023-11-21T08:49:50;8.80;99.90
33011;DHT22;19370;48.562;9.196;2023-11-21T08:52:21;8.90;99.90
33011;DHT22;19370;48.562;9.196;2023-11-21T08:54:50;8.80;99.90
33011;DHT22;19370;48.562;9.196;2023-11-21T08:57:25;8.80;99.90
33011;DHT22;19370;48.562;9.196;2023-11-21T08:59:50;8.80;99.90
33011;DHT22;19370;48.562;9.196;2023-11-21T09:02:26;8.80;99.90
33011;DHT22;19370;48.562;9.196;2023-11-21T09:04:51;8.80;99.90
33011;DHT22;19370;48.562;9.196;2023-11-21T09:07:18;8.80;99.90
33011;DHT22;19370;48.562;9.196;2023-11-21T09:09:46;8.80;99.90
33011;DHT22;19370;48.562;9.196;2023-11-21T09:12:11;8.80;99.90
33011;DHT22;19370;48.562;9.196;2023-11-21T09:14:37;8.80;99.90
33011;DHT22;19370;48.562;9.196;2023-11-21T09:17:03;8.70;99.90
33011;DHT22;19370;48.562;9.196;2023-11-21T09:19:29;8.80;99.90
33011;DHT22;19370;48.562;9.196;2023-11-21T09:21:54;8.90;99.90
33011;DHT22;19370;48.562;9.196;2023-11-21T09:24:22;9.00;99.90
33011;DHT22;19370;48.562;9.196;2023-11-21T09:26:48;9.10;99.90
33011;DHT22;19370;48.562;9.196;2023-11-21T09:29:13;9.10;99.90
33011;DHT22;19370;48.562;9.196;2023-11-21T09:31:39;9.10;99.90
33011;DHT22;19370;48.562;9.196;2023-11-21T09:34:05;9.10;99.90
33011;DHT22;19370;48.562;9.196;2023-11-21T09:36:31;9.20;99.90
33011;DHT22;19370;48.562;9.196;2023-11-21T09:38:58;9.30;99.90
33011;DHT22;19370;48.562;9.196;2023-11-21T09:41:46;9.40;99.90
33011;DHT22;19370;48.562;9.196;2023-11-21T09:44:18;9.50;99.90
33011;DHT22;19370;48.562;9.196;2023-11-21T09:46:47;9.70;99.90
33011;DHT22;19370;48.562;9.196;2023-11-21T09:49:22;9.90;99.90
33011;DHT22;19370;48.562;9.196;2023-11-21T09:51:51;9.80;99.90
33011;DHT22;19370;48.562;9.196;2023-11-21T09:54:18;9.70;99.90
33011;DHT22;19370;48.562;9.196;2023-11-21T09:56:46;9.80;99.90
33011;DHT22;19370;48.562;9.196;2023-11-21T09:59:15;9.70;99.90
33011;DHT22;19370;48.562;9.196;2023-11-21T10:01:41;9.70;99.90
33011;DHT22;19370;48.562;9.196;2023-11-21T10:04:09;9.50;99.90
33011;DHT22;19370;48.562;9.196;2023-11-21T10:06:41;9.50;99.90
33011;DHT22;19370;48.562;9.196;2023-11-21T10:09:10;9.50;99.90
33011;DHT22;19370;48.562;9.196;2023-11-21T10:11:40;9.50;99.90
33011;DHT22;19370;48.562;9.196;2023-11-21T10:14:14;9.50;99.90
33011;DHT22;19370;48.562;9.196;2023-11-21T10:16:44;9.50;99.90
33011;DHT22;19370;48.562;9.196;2023-11-21T10:19:13;9.50;99.90
33011;DHT22;19370;48.562;9.196;2023-11-21T10:21:39;9.50;99.90
33011;DHT22;19370;48.562;9.196;2023-11-21T10:24:05;9.60;99.90
33011;DHT22;19370;48.562;9.196;2023-11-21T10:26:32;9.50;99.90
33011;DHT22;19370;48.562;9.196;2023-11-21T10:28:59;9.50;99.90
33011;DHT22;19370;48.562;9.196;2023-11-21T10:31:32;9.40;99.90
33011;DHT22;19370;48.562;9.196;2023-11-21T10:34:15;9.40;99.90
33011;DHT22;19370;48.562;9.196;2023-11-21T10:36:41;9.40;99.90
33011;DHT22;19370;48.562;9.196;2023-11-21T10:39:07;9.40;99.90
33011;DHT22;19370;48.562;9.196;2023-11-21T10:41:33;9.30;99.90
33011;DHT22;19370;48.562;9.196;2023-11-21T10:44:08;9.30;99.90
33011;DHT22;19370;48.562;9.196;2023-11-21T10:46:34;9.30;99.90
33011;DHT22;19370;48.562;9.196;2023-11-21T10:49:00;9.30;99.90
33011;DHT22;19370;48.562;9.196;2023-11-21T10:51:31;9.20;99.90
33011;DHT22;19370;48.562;9.196;2023-11-21T10:54:01;9.20;99.90
33011;DHT22;19370;48.562;9.196;2023-11-21T10:56:27;9.30;99.90
33011;DHT22;19370;48.562;9.196;2023-11-21T10:58:59;9.30;99.90
33011;DHT22;19370;48.562;9.196;2023-11-21T11:01:27;9.30;99.90
33011;DHT22;19370;48.562;9.196;2023-11-21T11:03:54;9.40;99.90
33011;DHT22;19370;48.562;9.196;2023-11-21T11:06:21;9.40;99.90
33011;DHT22;19370;48.562;9.196;2023-11-21T11:08:48;9.30;99.90
33011;DHT22;19370;48.562;9.196;2023-11-21T11:11:16;9.40;99.90
33011;DHT22;19370;48.562;9.196;2023-11-21T11:13:44;9.30;99.90
33011;DHT22;19370;48.562;9.196;2023-11-21T11:16:13;9.30;99.90
33011;DHT22;19370;48.562;9.196;2023-11-21T11:18:49;9.30;99.90
33011;DHT22;19370;48.562;9.196;2023-11-21T11:21:55;9.30;99.90
33011;DHT22;19370;48.562;9.196;2023-11-21T11:30:00;9.20;99.90
33011;DHT22;19370;48.562;9.196;2023-11-21T11:38:11;9.20;99.90
33011;DHT22;19370;48.562;9.196;2023-11-21T11:40:41;9.20;99.90
33011;DHT22;19370;48.562;9.196;2023-11-21T11:43:09;9.10;99.90
33011;DHT22;19370;48.562;9.196;2023-11-21T11:45:35;9.10;99.90
33011;DHT22;19370;48.562;9.196;2023-11-21T11:48:02;9.10;99.90
33011;DHT22;19370;48.562;9.196;2023-11-21T11:50:30;9.10;99.90
33011;DHT22;19370;48.562;9.196;2023-11-21T11:53:12;9.10;99.90
33011;DHT22;19370;48.562;9.196;2023-11-21T11:55:38;9.10;99.90
33011;DHT22;19370;48.562;9.196;2023-11-21T11:58:06;9.00;99.90
33011;DHT22;19370;48.562;9.196;2023-11-21T12:00:34;9.10;99.90
33011;DHT22;19370;48.562;9.196;2023-11-21T12:03:03;9.00;99.90
33011;DHT22;19370;48.562;9.196;2023-11-21T12:05:30;9.10;99.90
33011;DHT22;19370;48.562;9.196;2023-11-21T12:08:01;9.10;99.90
33011;DHT22;19370;48.562;9.196;2023-11-21T12:10:35;9.10;99.90
33011;DHT22;19370;48.562;9.196;2023-11-21T12:13:06;9.10;99.90
33011;DHT22;19370;48.562;9.196;2023-11-21T12:15:46;9.10;99.90
33011;DHT22;19370;48.562;9.196;2023-11-21T12:18:13;9.20;99.90
33011;DHT22;19370;48.562;9.196;2023-11-21T12:20:39;9.00;99.90
33011;DHT22;19370;48.562;9.196;2023-11-21T12:23:06;9.10;99.90
33011;DHT22;19370;48.562;9.196;2023-11-21T12:25:34;9.20;99.90
33011;DHT22;19370;48.562;9.196;2023-11-21T12:28:08;9.20;99.90
33011;DHT22;19370;48.562;9.196;2023-11-21T12:30:35;9.10;99.90
33011;DHT22;19370;48.562;9.196;2023-11-21T12:33:02;9.20;99.90
33011;DHT22;19370;48.562;9.196;2023-11-21T12:35:34;9.10;99.90
33011;DHT22;19370;48.562;9.196;2023-11-21T12:38:03;9.10;99.90
33011;DHT22;19370;48.562;9.196;2023-11-21T12:40:29;8.90;99.90
33011;DHT22;19370;48.562;9.196;2023-11-21T12:42:57;9.00;99.90
33011;DHT22;19370;48.562;9.196;2023-11-21T12:45:23;9.00;99.90
33011;DHT22;19370;48.562;9.196;2023-11-21T12:47:56;9.00;99.90
33011;DHT22;19370;48.562;9.196;2023-11-21T12:50:29;9.00;99.90
33011;DHT22;19370;48.562;9.196;2023-11-21T12:53:06;9.00;99.90
33011;DHT22;19370;48.562;9.196;2023-11-21T12:55:34;9.10;99.90
33011;DHT22;19370;48.562;9.196;2023-11-21T12:58:05;9.10;99.90
33011;DHT22;19370;48.562;9.196;2023-11-21T13:00:38;9.10;99.90
33011;DHT22;19370;48.562;9.196;2023-11-21T13:03:08;9.10;99.90
33011;DHT22;19370;48.562;9.196;2023-11-21T13:05:35;9.30;99.90
33011;DHT22;19370;48.562;9.196;2023-11-21T13:08:07;9.40;99.90
33011;DHT22;19370;48.562;9.196;2023-11-21T13:10:37;9.50;99.90
33011;DHT22;19370;48.562;9.196;2023-11-21T13:13:07;9.40;99.90
33011;DHT22;19370;48.562;9.196;2023-11-21T13:16:03;9.50;99.90
33011;DHT22;19370;48.562;9.196;2023-11-21T13:18:33;9.60;99.90
33011;DHT22;19370;48.562;9.196;2023-11-21T13:21:02;9.70;99.90
33011;DHT22;19370;48.562;9.196;2023-11-21T13:23:34;9.80;99.90
33011;DHT22;19370;48.562;9.196;2023-11-21T13:26:01;9.70;99.90
33011;DHT22;19370;48.562;9.196;2023-11-21T13:28:32;9.70;99.90
33011;DHT22;19370;48.562;9.196;2023-11-21T13:30:59;9.80;99.90
33011;DHT22;19370;48.562;9.196;2023-11-21T13:33:34;9.60;99.90
33011;DHT22;19370;48.562;9.196;2023-11-21T13:36:04;9.50;99.90
33011;DHT22;19370;48.562;9.196;2023-11-21T13:38:35;9.50;99.90
33011;DHT22;19370;48.562;9.196;2023-11-21T13:41:02;9.40;99.90
33011;DHT22;19370;48.562;9.196;2023-11-21T13:43:38;9.40;99.90
33011;DHT22;19370;48.562;9.196;2023-11-21T13:46:04;9.40;99.90
33011;DHT22;19370;48.562;9.196;2023-11-21T13:48:42;9.50;99.90
33011;DHT22;19370;48.562;9.196;2023-11-21T13:51:14;9.60;99.90
33011;DHT22;19370;48.562;9.196;2023-11-21T13:53:55;9.70;99.90
33011;DHT22;19370;48.562;9.196;2023-11-21T13:56:27;9.80;99.90
33011;DHT22;19370;48.562;9.196;2023-11-21T13:59:05;9.80;99.90
33011;DHT22;19370;48.562;9.196;2023-11-21T14:01:48;9.80;99.90
33011;DHT22;19370;48.562;9.196;2023-11-21T14:04:21;9.80;99.90
33011;DHT22;19370;48.562;9.196;2023-11-21T14:07:04;9.70;99.90
33011;DHT22;19370;48.562;9.196;2023-11-21T14:09:59;9.60;99.90
33011;DHT22;19370;48.562;9.196;2023-11-21T14:12:25;9.50;99.90
33011;DHT22;19370;48.562;9.196;2023-11-21T14:14:54;9.40;99.90
33011;DHT22;19370;48.562;9.196;2023-11-21T14:17:23;9.40;99.90
33011;DHT22;19370;48.562;9.196;2023-11-21T14:19:50;9.40;99.90
33011;DHT22;19370;48.562;9.196;2023-11-21T14:22:22;9.40;99.90
33011;DHT22;19370;48.562;9.196;2023-11-21T14:24:47;9.30;99.90
33011;DHT22;19370;48.562;9.196;2023-11-21T14:27:15;9.30;99.90
33011;DHT22;19370;48.562;9.196;2023-11-21T14:29:41;9.20;99.90
33011;DHT22;19370;48.562;9.196;2023-11-21T14:32:10;9.20;99.90
33011;DHT22;19370;48.562;9.196;2023-11-21T14:34:35;9.20;99.90
33011;DHT22;19370;48.562;9.196;2023-11-21T14:37:07;9.20;99.90
33011;DHT22;19370;48.562;9.196;2023-11-21T14:39:33;9.20;99.90
33011;DHT22;19370;48.562;9.196;2023-11-21T14:42:03;9.20;99.90
33011;DHT22;19370;48.562;9.196;2023-11-21T14:44:30;9.20;99.90
33011;DHT22;19370;48.562;9.196;2023-11-21T14:47:00;9.20;99.90
33011;DHT22;19370;48.562;9.196;2023-11-21T14:49:39;9.20;99.90
33011;DHT22;19370;48.562;9.196;2023-11-21T14:52:20;9.10;99.90
33011;DHT22;19370;48.562;9.196;2023-11-21T14:55:01;9.00;99.90
33011;DHT22;19370;48.562;9.196;2023-11-21T14:57:45;9.00;99.90
33011;DHT22;19370;48.562;9.196;2023-11-21T15:00:16;8.90;99.90
33011;DHT22;19370;48.562;9.196;2023-11-21T15:02:56;8.90;99.90
33011;DHT22;19370;48.562;9.196;2023-11-21T15:05:27;8.90;99.90
33011;DHT22;19370;48.562;9.196;2023-11-21T15:08:00;9.00;99.90
33011;DHT22;19370;48.562;9.196;2023-11-21T15:10:48;8.90;99.90
33011;DHT22;19370;48.562;9.196;2023-11-21T15:13:19;8.90;99.90
33011;DHT22;19370;48.562;9.196;2023-11-21T15:15:44;8.90;99.90
33011;DHT22;19370;48.562;9.196;2023-11-21T15:18:10;8.90;99.90
33011;DHT22;19370;48.562;9.196;2023-11-21T15:20:41;8.90;99.90
33011;DHT22;19370;48.562;9.196;2023-11-21T15:23:09;8.80;99.90
33011;DHT22;19370;48.562;9.196;2023-11-21T15:25:34;8.70;99.90
33011;DHT22;19370;48.562;9.196;2023-11-21T15:28:05;8.70;99.90
33011;DHT22;19370;48.562;9.196;2023-11-21T15:30:33;8.70;99.90
33011;DHT22;19370;48.562;9.196;2023-11-21T15:32:59;8.70;99.90
33011;DHT22;19370;48.562;9.196;2023-11-21T15:35:26;8.80;99.90
33011;DHT22;19370;48.562;9.196;2023-11-21T15:37:58;8.80;99.90
33011;DHT22;19370;48.562;9.196;2023-11-21T15:40:25;9.00;99.90
33011;DHT22;19370;48.562;9.196;2023-11-21T15:42:52;8.90;99.90
33011;DHT22;19370;48.562;9.196;2023-11-21T15:45:26;8.90;99.90
33011;DHT22;19370;48.562;9.196;2023-11-21T15:47:51;8.80;99.90
33011;DHT22;19370;48.562;9.196;2023-11-21T15:50:19;8.80;99.90
33011;DHT22;19370;48.562;9.196;2023-11-21T15:52:46;8.70;99.90
33011;DHT22;19370;48.562;9.196;2023-11-21T15:55:19;8.70;99.90
33011;DHT22;19370;48.562;9.196;2023-11-21T15:57:46;8.70;99.90
33011;DHT22;19370;48.562;9.196;2023-11-21T16:00:12;8.60;99.90
33011;DHT22;19370;48.562;9.196;2023-11-21T16:02:43;8.60;99.90
33011;DHT22;19370;48.562;9.196;2023-11-21T16:05:09;8.60;99.90
33011;DHT22;19370;48.562;9.196;2023-11-21T16:07:36;8.50;99.90
33011;DHT22;19370;48.562;9.196;2023-11-21T16:10:03;8.50;99.90
33011;DHT22;19370;48.562;9.196;2023-11-21T16:12:32;8.50;99.90
33011;DHT22;19370;48.562;9.196;2023-11-21T16:14:57;8.50;99.90
33011;DHT22;19370;48.562;9.196;2023-11-21T16:17:24;8.50;99.90
33011;DHT22;19370;48.562;9.196;2023-11-21T16:19:54;8.50;99.90
33011;DHT22;19370;48.562;9.196;2023-11-21T16:22:21;8.40;99.90
33011;DHT22;19370;48.562;9.196;2023-11-21T16:24:47;8.40;99.90
33011;DHT22;19370;48.562;9.196;2023-11-21T16:27:13;8.40;99.90
33011;DHT22;19370;48.562;9.196;2023-11-21T16:29:41;8.40;99.90
33011;DHT22;19370;48.562;9.196;2023-11-21T16:32:07;8.40;99.90
33011;DHT22;19370;48.562;9.196;2023-11-21T16:34:35;8.40;99.90
33011;DHT22;19370;48.562;9.196;2023-11-21T16:37:01;8.40;99.90
33011;DHT22;19370;48.562;9.196;2023-11-21T16:39:26;8.40;99.90
33011;DHT22;19370;48.562;9.196;2023-11-21T16:41:56;8.40;99.90
33011;DHT22;19370;48.562;9.196;2023-11-21T16:44:22;8.40;99.90
33011;DHT22;19370;48.562;9.196;2023-11-21T16:46:51;8.40;99.90
33011;DHT22;19370;48.562;9.196;2023-11-21T16:49:25;8.40;99.90
33011;DHT22;19370;48.562;9.196;2023-11-21T16:51:52;8.40;99.90
33011;DHT22;19370;48.562;9.196;2023-11-21T16:54:19;8.40;99.90
33011;DHT22;19370;48.562;9.196;2023-11-21T16:56:48;8.40;99.90
33011;DHT22;19370;48.562;9.196;2023-11-21T16:59:15;8.40;99.90
33011;DHT22;19370;48.562;9.196;2023-11-21T17:01:42;8.50;99.90
33011;DHT22;19370;48.562;9.196;2023-11-21T17:04:10;8.40;99.90
33011;DHT22;19370;48.562;9.196;2023-11-21T17:06:40;8.30;99.90
33011;DHT22;19370;48.562;9.196;2023-11-21T17:09:05;8.30;99.90
33011;DHT22;19370;48.562;9.196;2023-11-21T17:11:35;8.30;99.90
33011;DHT22;19370;48.562;9.196;2023-11-21T17:14:02;8.40;99.90
33011;DHT22;19370;48.562;9.196;2023-11-21T17:16:30;8.40;99.90
33011;DHT22;19370;48.562;9.196;2023-11-21T17:18:56;8.40;99.90
33011;DHT22;19370;48.562;9.196;2023-11-21T17:21:22;8.50;99.90
33011;DHT22;19370;48.562;9.196;2023-11-21T17:23:48;8.40;99.90
33011;DHT22;19370;48.562;9.196;2023-11-21T17:26:13;8.40;99.90
33011;DHT22;19370;48.562;9.196;2023-11-21T17:28:41;8.30;99.90
33011;DHT22;19370;48.562;9.196;2023-11-21T17:31:08;8.40;99.90
33011;DHT22;19370;48.562;9.196;2023-11-21T17:33:34;8.40;99.90
33011;DHT22;19370;48.562;9.196;2023-11-21T17:36:00;8.40;99.90
33011;DHT22;19370;48.562;9.196;2023-11-21T17:38:26;8.30;99.90
33011;DHT22;19370;48.562;9.196;2023-11-21T17:40:54;8.40;99.90
33011;DHT22;19370;48.562;9.196;2023-11-21T17:43:20;8.40;99.90
33011;DHT22;19370;48.562;9.196;2023-11-21T17:45:46;8.40;99.90
33011;DHT22;19370;48.562;9.196;2023-11-21T17:48:20;8.40;99.90
33011;DHT22;19370;48.562;9.196;2023-11-21T17:50:46;8.30;99.90
33011;DHT22;19370;48.562;9.196;2023-11-21T17:53:12;8.30;99.90
33011;DHT22;19370;48.562;9.196;2023-11-21T17:55:37;8.30;99.90
33011;DHT22;19370;48.562;9.196;2023-11-21T17:58:04;8.20;99.90
33011;DHT22;19370;48.562;9.196;2023-11-21T18:00:29;8.30;99.90
33011;DHT22;19370;48.562;9.196;2023-11-21T18:02:59;8.20;99.90
33011;DHT22;19370;48.562;9.196;2023-11-21T18:05:25;8.20;99.90
33011;DHT22;19370;48.562;9.196;2023-11-21T18:07:54;8.20;99.90
33011;DHT22;19370;48.562;9.196;2023-11-21T18:10:20;8.20;99.90
33011;DHT22;19370;48.562;9.196;2023-11-21T18:12:45;8.20;99.90
33011;DHT22;19370;48.562;9.196;2023-11-21T18:15:11;8.30;99.90
33011;DHT22;19370;48.562;9.196;2023-11-21T18:17:39;8.20;99.90
33011;DHT22;19370;48.562;9.196;2023-11-21T18:20:08;8.20;99.90
33011;DHT22;19370;48.562;9.196;2023-11-21T18:22:35;8.10;99.90
33011;DHT22;19370;48.562;9.196;2023-11-21T18:25:01;8.10;99.90
33011;DHT22;19370;48.562;9.196;2023-11-21T18:27:27;8.10;99.90
33011;DHT22;19370;48.562;9.196;2023-11-21T18:30:04;8.10;99.90
33011;DHT22;19370;48.562;9.196;2023-11-21T18:32:31;8.20;99.90
33011;DHT22;19370;48.562;9.196;2023-11-21T18:34:57;8.20;99.90
33011;DHT22;19370;48.562;9.196;2023-11-21T18:37:33;8.20;99.90
33011;DHT22;19370;48.562;9.196;2023-11-21T18:39:58;8.20;99.90
33011;DHT22;19370;48.562;9.196;2023-11-21T18:42:25;8.20;99.90
33011;DHT22;19370;48.562;9.196;2023-11-21T18:44:53;8.20;99.90
33011;DHT22;19370;48.562;9.196;2023-11-21T18:47:18;8.20;99.90
33011;DHT22;19370;48.562;9.196;2023-11-21T18:49:45;8.20;99.90
33011;DHT22;19370;48.562;9.196;2023-11-21T18:52:11;8.20;99.90
33011;DHT22;19370;48.562;9.196;2023-11-21T18:54:43;8.20;99.90
33011;DHT22;19370;48.562;9.196;2023-11-21T18:57:09;8.20;99.90
33011;DHT22;19370;48.562;9.196;2023-11-21T18:59:36;8.20;99.90
33011;DHT22;19370;48.562;9.196;2023-11-21T19:02:03;8.20;99.90
33011;DHT22;19370;48.562;9.196;2023-11-21T19:04:37;8.20;99.90
33011;DHT22;19370;48.562;9.196;2023-11-21T19:07:03;8.30;99.90
33011;DHT22;19370;48.562;9.196;2023-11-21T19:09:30;8.30;99.90